Mounds View, Minnesota
Current Conditions -  °F | °C
As of 5:55 PM on Friday 28 Nov 2014 (Local Time) from KANE Reporting Station
Broken Clouds Broken Clouds  
Wind Chill: -8°   Ceiling: 12000
Heat Index: -4°   Visibility: 10mi
Dew Point: -8°   Wind: 7mph
Humidity: 74%   Direction: 90°E
Pressure: 29.82"   Gusts: NA
Location:  45.0755°N, 93.1911°W
Report Text: KANE 282355Z 09006KT 10SM BKN120 M04/M08 A2982
Loading
Personal Weather Stations






























Interactive Weather Map New forecast layout! Learn more

10-Day Weather Forecast

Advertisements
Track Severe Weather on mobile